sensor_id;sensor_type;location;lat;lon;timestamp;P1;durP1;ratioP1;P2;durP2;ratioP2
41635;SDS011;27623;51.966;4.602;2023-06-22T00:02:12;21.50;;;13.10;;
41635;SDS011;27623;51.966;4.602;2023-06-22T00:04:37;20.85;;;13.50;;
41635;SDS011;27623;51.966;4.602;2023-06-22T00:07:03;20.23;;;13.35;;
41635;SDS011;27623;51.966;4.602;2023-06-22T00:09:28;23.98;;;13.70;;
41635;SDS011;27623;51.966;4.602;2023-06-22T00:11:53;23.23;;;13.40;;
41635;SDS011;27623;51.966;4.602;2023-06-22T00:14:21;29.00;;;13.88;;
41635;SDS011;27623;51.966;4.602;2023-06-22T00:16:46;21.73;;;13.63;;
41635;SDS011;27623;51.966;4.602;2023-06-22T00:19:13;23.75;;;14.23;;
41635;SDS011;27623;51.966;4.602;2023-06-22T00:21:39;23.98;;;14.15;;
41635;SDS011;27623;51.966;4.602;2023-06-22T00:24:05;24.73;;;14.10;;
41635;SDS011;27623;51.966;4.602;2023-06-22T00:26:31;22.20;;;14.15;;
41635;SDS011;27623;51.966;4.602;2023-06-22T00:28:56;23.23;;;14.73;;
41635;SDS011;27623;51.966;4.602;2023-06-22T00:31:21;22.58;;;14.45;;
41635;SDS011;27623;51.966;4.602;2023-06-22T00:33:47;24.58;;;14.98;;
41635;SDS011;27623;51.966;4.602;2023-06-22T00:36:12;23.55;;;14.77;;
41635;SDS011;27623;51.966;4.602;2023-06-22T00:38:41;24.70;;;14.57;;
41635;SDS011;27623;51.966;4.602;2023-06-22T00:41:07;25.33;;;15.32;;
41635;SDS011;27623;51.966;4.602;2023-06-22T00:43:32;26.00;;;15.18;;
41635;SDS011;27623;51.966;4.602;2023-06-22T00:45:58;23.17;;;13.45;;
41635;SDS011;27623;51.966;4.602;2023-06-22T00:48:23;22.83;;;14.52;;
41635;SDS011;27623;51.966;4.602;2023-06-22T00:50:49;23.05;;;14.55;;
41635;SDS011;27623;51.966;4.602;2023-06-22T00:53:16;25.45;;;14.60;;
41635;SDS011;27623;51.966;4.602;2023-06-22T00:55:44;21.50;;;13.55;;
41635;SDS011;27623;51.966;4.602;2023-06-22T00:58:13;20.70;;;13.45;;
41635;SDS011;27623;51.966;4.602;2023-06-22T01:00:39;25.05;;;14.88;;
41635;SDS011;27623;51.966;4.602;2023-06-22T01:03:06;26.10;;;15.02;;
41635;SDS011;27623;51.966;4.602;2023-06-22T01:05:35;21.95;;;14.35;;
41635;SDS011;27623;51.966;4.602;2023-06-22T01:08:08;25.70;;;15.27;;
41635;SDS011;27623;51.966;4.602;2023-06-22T01:10:57;24.85;;;14.45;;
41635;SDS011;27623;51.966;4.602;2023-06-22T01:16:11;24.23;;;14.75;;
41635;SDS011;27623;51.966;4.602;2023-06-22T01:18:42;21.88;;;15.02;;
41635;SDS011;27623;51.966;4.602;2023-06-22T01:21:11;24.05;;;15.18;;
41635;SDS011;27623;51.966;4.602;2023-06-22T01:23:48;27.98;;;16.25;;
41635;SDS011;27623;51.966;4.602;2023-06-22T01:26:25;26.83;;;15.50;;
41635;SDS011;27623;51.966;4.602;2023-06-22T01:29:00;26.00;;;15.40;;
41635;SDS011;27623;51.966;4.602;2023-06-22T01:31:28;24.85;;;15.38;;
41635;SDS011;27623;51.966;4.602;2023-06-22T01:34:01;23.75;;;14.95;;
41635;SDS011;27623;51.966;4.602;2023-06-22T01:36:30;25.40;;;15.38;;
41635;SDS011;27623;51.966;4.602;2023-06-22T01:38:57;27.42;;;16.23;;
41635;SDS011;27623;51.966;4.602;2023-06-22T01:41:27;26.83;;;16.92;;
41635;SDS011;27623;51.966;4.602;2023-06-22T01:43:55;29.75;;;16.33;;
41635;SDS011;27623;51.966;4.602;2023-06-22T01:46:21;29.38;;;17.10;;
41635;SDS011;27623;51.966;4.602;2023-06-22T01:48:48;31.10;;;18.35;;
41635;SDS011;27623;51.966;4.602;2023-06-22T01:51:14;28.13;;;17.27;;
41635;SDS011;27623;51.966;4.602;2023-06-22T01:53:40;26.42;;;17.15;;
41635;SDS011;27623;51.966;4.602;2023-06-22T01:56:06;27.83;;;18.13;;
41635;SDS011;27623;51.966;4.602;2023-06-22T01:58:31;27.52;;;16.92;;
41635;SDS011;27623;51.966;4.602;2023-06-22T02:01:11;30.08;;;17.40;;
41635;SDS011;27623;51.966;4.602;2023-06-22T02:03:43;27.02;;;16.45;;
41635;SDS011;27623;51.966;4.602;2023-06-22T02:06:17;24.95;;;16.20;;
41635;SDS011;27623;51.966;4.602;2023-06-22T02:08:49;28.27;;;17.83;;
41635;SDS011;27623;51.966;4.602;2023-06-22T02:11:19;27.80;;;16.23;;
41635;SDS011;27623;51.966;4.602;2023-06-22T02:13:46;26.23;;;15.90;;
41635;SDS011;27623;51.966;4.602;2023-06-22T02:16:13;30.00;;;16.80;;
41635;SDS011;27623;51.966;4.602;2023-06-22T02:18:39;28.77;;;17.48;;
41635;SDS011;27623;51.966;4.602;2023-06-22T02:21:11;28.20;;;16.50;;
41635;SDS011;27623;51.966;4.602;2023-06-22T02:23:36;30.88;;;17.92;;
41635;SDS011;27623;51.966;4.602;2023-06-22T02:26:02;28.65;;;17.08;;
41635;SDS011;27623;51.966;4.602;2023-06-22T02:28:28;30.73;;;17.80;;
41635;SDS011;27623;51.966;4.602;2023-06-22T02:30:53;31.10;;;17.30;;
41635;SDS011;27623;51.966;4.602;2023-06-22T02:33:19;34.13;;;18.48;;
41635;SDS011;27623;51.966;4.602;2023-06-22T02:35:44;30.17;;;17.05;;
41635;SDS011;27623;51.966;4.602;2023-06-22T02:38:12;29.75;;;17.73;;
41635;SDS011;27623;51.966;4.602;2023-06-22T02:40:39;27.92;;;18.00;;
41635;SDS011;27623;51.966;4.602;2023-06-22T02:43:04;28.30;;;17.65;;
41635;SDS011;27623;51.966;4.602;2023-06-22T02:45:30;34.17;;;18.38;;
41635;SDS011;27623;51.966;4.602;2023-06-22T02:47:55;29.30;;;17.35;;
41635;SDS011;27623;51.966;4.602;2023-06-22T02:50:21;26.67;;;16.55;;
41635;SDS011;27623;51.966;4.602;2023-06-22T02:52:46;31.45;;;18.90;;
41635;SDS011;27623;51.966;4.602;2023-06-22T02:55:12;28.08;;;17.33;;
41635;SDS011;27623;51.966;4.602;2023-06-22T02:57:37;28.75;;;17.95;;
41635;SDS011;27623;51.966;4.602;2023-06-22T03:00:05;28.10;;;17.35;;
41635;SDS011;27623;51.966;4.602;2023-06-22T03:02:41;27.88;;;17.58;;
41635;SDS011;27623;51.966;4.602;2023-06-22T03:05:07;28.45;;;17.10;;
41635;SDS011;27623;51.966;4.602;2023-06-22T03:07:39;27.88;;;17.67;;
41635;SDS011;27623;51.966;4.602;2023-06-22T03:10:08;25.92;;;16.67;;
41635;SDS011;27623;51.966;4.602;2023-06-22T03:12:34;30.83;;;17.65;;
41635;SDS011;27623;51.966;4.602;2023-06-22T03:15:00;35.33;;;19.67;;
41635;SDS011;27623;51.966;4.602;2023-06-22T03:17:27;28.20;;;18.17;;
41635;SDS011;27623;51.966;4.602;2023-06-22T03:19:53;29.30;;;17.60;;
41635;SDS011;27623;51.966;4.602;2023-06-22T03:22:19;30.02;;;18.60;;
41635;SDS011;27623;51.966;4.602;2023-06-22T03:24:44;28.00;;;18.60;;
41635;SDS011;27623;51.966;4.602;2023-06-22T03:27:10;31.38;;;17.58;;
41635;SDS011;27623;51.966;4.602;2023-06-22T03:29:35;27.35;;;17.33;;
41635;SDS011;27623;51.966;4.602;2023-06-22T03:32:00;31.67;;;18.02;;
41635;SDS011;27623;51.966;4.602;2023-06-22T03:34:26;28.05;;;17.65;;
41635;SDS011;27623;51.966;4.602;2023-06-22T03:36:51;28.60;;;17.65;;
41635;SDS011;27623;51.966;4.602;2023-06-22T03:39:17;32.05;;;17.55;;
41635;SDS011;27623;51.966;4.602;2023-06-22T03:41:42;30.23;;;18.17;;
41635;SDS011;27623;51.966;4.602;2023-06-22T03:44:07;28.25;;;16.55;;
41635;SDS011;27623;51.966;4.602;2023-06-22T03:46:37;31.25;;;18.75;;
41635;SDS011;27623;51.966;4.602;2023-06-22T03:49:04;30.35;;;17.38;;
41635;SDS011;27623;51.966;4.602;2023-06-22T03:51:30;29.13;;;17.55;;
41635;SDS011;27623;51.966;4.602;2023-06-22T03:53:56;28.15;;;17.27;;
41635;SDS011;27623;51.966;4.602;2023-06-22T03:56:21;30.50;;;17.88;;
41635;SDS011;27623;51.966;4.602;2023-06-22T03:58:46;29.15;;;17.23;;
41635;SDS011;27623;51.966;4.602;2023-06-22T04:01:12;28.30;;;17.85;;
41635;SDS011;27623;51.966;4.602;2023-06-22T04:03:38;29.88;;;18.38;;
41635;SDS011;27623;51.966;4.602;2023-06-22T04:06:03;27.90;;;17.63;;
41635;SDS011;27623;51.966;4.602;2023-06-22T04:08:29;27.73;;;17.77;;
41635;SDS011;27623;51.966;4.602;2023-06-22T04:10:54;28.48;;;17.65;;
41635;SDS011;27623;51.966;4.602;2023-06-22T04:13:20;28.98;;;17.67;;
41635;SDS011;27623;51.966;4.602;2023-06-22T04:15:45;29.08;;;17.60;;
41635;SDS011;27623;51.966;4.602;2023-06-22T04:18:11;25.52;;;16.23;;
41635;SDS011;27623;51.966;4.602;2023-06-22T04:20:36;27.92;;;16.33;;
41635;SDS011;27623;51.966;4.602;2023-06-22T04:23:01;29.55;;;17.98;;
41635;SDS011;27623;51.966;4.602;2023-06-22T04:25:27;31.25;;;18.08;;
41635;SDS011;27623;51.966;4.602;2023-06-22T04:27:52;32.55;;;18.58;;
41635;SDS011;27623;51.966;4.602;2023-06-22T04:30:18;26.27;;;16.98;;
41635;SDS011;27623;51.966;4.602;2023-06-22T04:32:44;28.13;;;16.98;;
41635;SDS011;27623;51.966;4.602;2023-06-22T04:35:10;26.35;;;17.23;;
41635;SDS011;27623;51.966;4.602;2023-06-22T04:37:36;25.45;;;16.83;;
41635;SDS011;27623;51.966;4.602;2023-06-22T04:40:01;28.65;;;18.02;;
41635;SDS011;27623;51.966;4.602;2023-06-22T04:42:29;29.77;;;17.23;;
41635;SDS011;27623;51.966;4.602;2023-06-22T04:44:55;28.63;;;17.85;;
41635;SDS011;27623;51.966;4.602;2023-06-22T04:47:20;29.92;;;17.15;;
41635;SDS011;27623;51.966;4.602;2023-06-22T04:49:46;31.05;;;17.70;;
41635;SDS011;27623;51.966;4.602;2023-06-22T04:52:12;34.22;;;18.67;;
41635;SDS011;27623;51.966;4.602;2023-06-22T04:54:39;29.42;;;17.50;;
41635;SDS011;27623;51.966;4.602;2023-06-22T04:57:12;28.00;;;17.73;;
41635;SDS011;27623;51.966;4.602;2023-06-22T04:59:37;27.58;;;17.90;;
41635;SDS011;27623;51.966;4.602;2023-06-22T05:02:09;29.20;;;18.08;;
41635;SDS011;27623;51.966;4.602;2023-06-22T05:04:35;36.67;;;18.55;;
41635;SDS011;27623;51.966;4.602;2023-06-22T05:07:03;28.98;;;17.50;;
41635;SDS011;27623;51.966;4.602;2023-06-22T05:09:29;30.27;;;18.58;;
41635;SDS011;27623;51.966;4.602;2023-06-22T05:11:55;29.80;;;17.52;;
41635;SDS011;27623;51.966;4.602;2023-06-22T05:14:25;30.92;;;18.63;;
41635;SDS011;27623;51.966;4.602;2023-06-22T05:16:50;29.88;;;18.55;;
41635;SDS011;27623;51.966;4.602;2023-06-22T05:19:17;31.20;;;18.33;;
41635;SDS011;27623;51.966;4.602;2023-06-22T05:21:42;29.20;;;17.27;;
41635;SDS011;27623;51.966;4.602;2023-06-22T05:24:08;31.98;;;19.05;;
41635;SDS011;27623;51.966;4.602;2023-06-22T05:26:34;32.30;;;19.35;;
41635;SDS011;27623;51.966;4.602;2023-06-22T05:29:00;27.75;;;16.90;;
41635;SDS011;27623;51.966;4.602;2023-06-22T05:31:27;30.42;;;17.60;;
41635;SDS011;27623;51.966;4.602;2023-06-22T05:33:54;26.25;;;17.58;;
41635;SDS011;27623;51.966;4.602;2023-06-22T05:36:20;27.52;;;17.05;;
41635;SDS011;27623;51.966;4.602;2023-06-22T05:38:46;25.90;;;16.23;;
41635;SDS011;27623;51.966;4.602;2023-06-22T05:41:12;24.75;;;16.05;;
41635;SDS011;27623;51.966;4.602;2023-06-22T05:43:39;31.00;;;17.33;;
41635;SDS011;27623;51.966;4.602;2023-06-22T05:46:05;25.58;;;15.82;;
41635;SDS011;27623;51.966;4.602;2023-06-22T05:48:31;29.08;;;17.25;;
41635;SDS011;27623;51.966;4.602;2023-06-22T05:50:56;25.23;;;15.57;;
41635;SDS011;27623;51.966;4.602;2023-06-22T05:53:22;24.90;;;14.60;;
41635;SDS011;27623;51.966;4.602;2023-06-22T05:55:49;24.27;;;14.90;;
41635;SDS011;27623;51.966;4.602;2023-06-22T05:58:15;22.35;;;13.45;;
41635;SDS011;27623;51.966;4.602;2023-06-22T06:00:40;23.10;;;14.40;;
41635;SDS011;27623;51.966;4.602;2023-06-22T06:03:06;26.92;;;14.63;;
41635;SDS011;27623;51.966;4.602;2023-06-22T06:05:33;22.27;;;13.02;;
41635;SDS011;27623;51.966;4.602;2023-06-22T06:08:02;22.98;;;13.57;;
41635;SDS011;27623;51.966;4.602;2023-06-22T06:10:32;23.77;;;13.27;;
41635;SDS011;27623;51.966;4.602;2023-06-22T06:13:01;20.83;;;13.00;;
41635;SDS011;27623;51.966;4.602;2023-06-22T06:15:27;20.42;;;12.10;;
41635;SDS011;27623;51.966;4.602;2023-06-22T06:17:53;21.45;;;12.07;;
41635;SDS011;27623;51.966;4.602;2023-06-22T06:20:19;19.55;;;12.82;;
41635;SDS011;27623;51.966;4.602;2023-06-22T06:22:46;20.83;;;11.43;;
41635;SDS011;27623;51.966;4.602;2023-06-22T06:25:15;19.67;;;11.63;;
41635;SDS011;27623;51.966;4.602;2023-06-22T06:27:44;19.23;;;10.98;;
41635;SDS011;27623;51.966;4.602;2023-06-22T06:30:14;19.98;;;10.48;;
41635;SDS011;27623;51.966;4.602;2023-06-22T06:32:41;19.83;;;10.20;;
41635;SDS011;27623;51.966;4.602;2023-06-22T06:35:10;16.42;;;10.00;;
41635;SDS011;27623;51.966;4.602;2023-06-22T06:37:38;16.83;;;9.48;;
41635;SDS011;27623;51.966;4.602;2023-06-22T06:40:05;19.40;;;9.82;;
41635;SDS011;27623;51.966;4.602;2023-06-22T06:42:45;16.55;;;9.15;;
41635;SDS011;27623;51.966;4.602;2023-06-22T06:45:18;17.40;;;9.98;;
41635;SDS011;27623;51.966;4.602;2023-06-22T06:47:48;15.35;;;9.32;;
41635;SDS011;27623;51.966;4.602;2023-06-22T06:50:14;17.15;;;9.82;;
41635;SDS011;27623;51.966;4.602;2023-06-22T06:52:42;19.58;;;9.40;;
41635;SDS011;27623;51.966;4.602;2023-06-22T06:55:09;13.43;;;8.52;;
41635;SDS011;27623;51.966;4.602;2023-06-22T06:57:37;13.07;;;8.38;;
41635;SDS011;27623;51.966;4.602;2023-06-22T07:00:03;17.13;;;8.80;;
41635;SDS011;27623;51.966;4.602;2023-06-22T07:02:42;14.88;;;8.38;;
41635;SDS011;27623;51.966;4.602;2023-06-22T07:05:12;17.45;;;8.60;;
41635;SDS011;27623;51.966;4.602;2023-06-22T07:07:38;16.98;;;9.02;;
41635;SDS011;27623;51.966;4.602;2023-06-22T07:10:04;15.00;;;8.50;;
41635;SDS011;27623;51.966;4.602;2023-06-22T07:12:32;13.32;;;8.63;;
41635;SDS011;27623;51.966;4.602;2023-06-22T07:15:05;13.68;;;8.43;;
41635;SDS011;27623;51.966;4.602;2023-06-22T07:17:33;10.20;;;7.10;;
41635;SDS011;27623;51.966;4.602;2023-06-22T07:19:59;12.15;;;7.18;;
41635;SDS011;27623;51.966;4.602;2023-06-22T07:22:27;12.63;;;6.95;;
41635;SDS011;27623;51.966;4.602;2023-06-22T07:24:52;13.32;;;7.70;;
41635;SDS011;27623;51.966;4.602;2023-06-22T07:27:18;11.52;;;7.38;;
41635;SDS011;27623;51.966;4.602;2023-06-22T07:29:44;11.52;;;7.32;;
41635;SDS011;27623;51.966;4.602;2023-06-22T07:32:12;10.38;;;6.50;;
41635;SDS011;27623;51.966;4.602;2023-06-22T07:34:38;11.48;;;6.10;;
41635;SDS011;27623;51.966;4.602;2023-06-22T07:37:03;9.30;;;6.10;;
41635;SDS011;27623;51.966;4.602;2023-06-22T07:39:29;9.07;;;5.50;;
41635;SDS011;27623;51.966;4.602;2023-06-22T07:41:55;8.88;;;5.68;;
41635;SDS011;27623;51.966;4.602;2023-06-22T07:44:20;8.38;;;5.38;;
41635;SDS011;27623;51.966;4.602;2023-06-22T07:46:46;12.75;;;5.85;;
41635;SDS011;27623;51.966;4.602;2023-06-22T07:49:11;9.50;;;5.57;;
41635;SDS011;27623;51.966;4.602;2023-06-22T07:51:37;8.55;;;5.22;;
41635;SDS011;27623;51.966;4.602;2023-06-22T07:54:02;9.05;;;5.15;;
41635;SDS011;27623;51.966;4.602;2023-06-22T07:56:28;10.48;;;4.90;;
41635;SDS011;27623;51.966;4.602;2023-06-22T07:58:53;11.27;;;4.88;;
41635;SDS011;27623;51.966;4.602;2023-06-22T08:01:18;7.82;;;4.43;;
41635;SDS011;27623;51.966;4.602;2023-06-22T08:03:47;10.38;;;3.97;;
41635;SDS011;27623;51.966;4.602;2023-06-22T08:06:17;5.40;;;2.90;;
41635;SDS011;27623;51.966;4.602;2023-06-22T08:08:43;6.63;;;4.07;;
41635;SDS011;27623;51.966;4.602;2023-06-22T08:11:08;7.03;;;4.20;;
41635;SDS011;27623;51.966;4.602;2023-06-22T08:13:34;8.38;;;4.65;;
41635;SDS011;27623;51.966;4.602;2023-06-22T08:16:00;8.23;;;4.18;;
41635;SDS011;27623;51.966;4.602;2023-06-22T08:18:25;7.53;;;3.97;;
41635;SDS011;27623;51.966;4.602;2023-06-22T08:20:53;8.52;;;3.85;;
41635;SDS011;27623;51.966;4.602;2023-06-22T08:23:18;7.38;;;4.07;;
41635;SDS011;27623;51.966;4.602;2023-06-22T08:25:46;8.20;;;4.57;;
41635;SDS011;27623;51.966;4.602;2023-06-22T08:28:13;8.25;;;5.35;;
41635;SDS011;27623;51.966;4.602;2023-06-22T08:30:38;9.75;;;5.20;;
41635;SDS011;27623;51.966;4.602;2023-06-22T08:33:04;9.07;;;5.85;;
41635;SDS011;27623;51.966;4.602;2023-06-22T08:35:30;10.02;;;5.85;;
41635;SDS011;27623;51.966;4.602;2023-06-22T08:37:55;13.63;;;7.80;;
41635;SDS011;27623;51.966;4.602;2023-06-22T08:40:22;12.25;;;8.02;;
41635;SDS011;27623;51.966;4.602;2023-06-22T08:42:48;12.30;;;7.30;;
41635;SDS011;27623;51.966;4.602;2023-06-22T08:45:13;14.52;;;9.32;;
41635;SDS011;27623;51.966;4.602;2023-06-22T08:47:39;13.90;;;8.95;;
41635;SDS011;27623;51.966;4.602;2023-06-22T08:50:12;13.93;;;8.80;;
41635;SDS011;27623;51.966;4.602;2023-06-22T08:52:38;13.57;;;8.18;;
41635;SDS011;27623;51.966;4.602;2023-06-22T08:55:06;19.08;;;10.32;;
41635;SDS011;27623;51.966;4.602;2023-06-22T08:57:32;15.68;;;9.02;;
41635;SDS011;27623;51.966;4.602;2023-06-22T08:59:58;16.80;;;8.52;;
41635;SDS011;27623;51.966;4.602;2023-06-22T09:02:24;13.60;;;8.75;;
41635;SDS011;27623;51.966;4.602;2023-06-22T09:04:56;12.73;;;7.88;;
41635;SDS011;27623;51.966;4.602;2023-06-22T09:07:22;16.65;;;10.40;;
41635;SDS011;27623;51.966;4.602;2023-06-22T09:09:49;14.32;;;9.45;;
41635;SDS011;27623;51.966;4.602;2023-06-22T09:12:15;16.65;;;10.40;;
41635;SDS011;27623;51.966;4.602;2023-06-22T09:14:41;12.77;;;7.65;;
41635;SDS011;27623;51.966;4.602;2023-06-22T09:17:07;21.10;;;11.45;;
41635;SDS011;27623;51.966;4.602;2023-06-22T09:19:32;19.92;;;10.57;;
41635;SDS011;27623;51.966;4.602;2023-06-22T09:21:58;12.40;;;8.07;;
41635;SDS011;27623;51.966;4.602;2023-06-22T09:24:23;18.48;;;9.43;;
41635;SDS011;27623;51.966;4.602;2023-06-22T09:26:49;11.95;;;8.52;;
41635;SDS011;27623;51.966;4.602;2023-06-22T09:29:15;13.82;;;7.90;;
41635;SDS011;27623;51.966;4.602;2023-06-22T09:31:40;11.68;;;8.20;;
41635;SDS011;27623;51.966;4.602;2023-06-22T09:34:06;15.98;;;10.20;;
41635;SDS011;27623;51.966;4.602;2023-06-22T09:36:31;15.30;;;8.70;;
41635;SDS011;27623;51.966;4.602;2023-06-22T09:38:57;12.45;;;7.35;;
41635;SDS011;27623;51.966;4.602;2023-06-22T09:41:23;11.10;;;6.50;;
41635;SDS011;27623;51.966;4.602;2023-06-22T09:43:49;11.60;;;6.65;;
41635;SDS011;27623;51.966;4.602;2023-06-22T09:46:15;12.15;;;7.70;;
41635;SDS011;27623;51.966;4.602;2023-06-22T09:48:40;11.35;;;6.82;;
41635;SDS011;27623;51.966;4.602;2023-06-22T09:51:06;11.13;;;6.65;;
41635;SDS011;27623;51.966;4.602;2023-06-22T09:53:31;10.23;;;6.03;;
41635;SDS011;27623;51.966;4.602;2023-06-22T09:55:56;7.72;;;5.32;;
41635;SDS011;27623;51.966;4.602;2023-06-22T09:58:22;12.70;;;5.90;;
41635;SDS011;27623;51.966;4.602;2023-06-22T10:00:48;10.02;;;5.15;;
41635;SDS011;27623;51.966;4.602;2023-06-22T10:03:13;7.35;;;5.03;;
41635;SDS011;27623;51.966;4.602;2023-06-22T10:05:39;7.50;;;4.75;;
41635;SDS011;27623;51.966;4.602;2023-06-22T10:08:06;9.73;;;5.05;;
41635;SDS011;27623;51.966;4.602;2023-06-22T10:10:34;10.35;;;5.43;;
41635;SDS011;27623;51.966;4.602;2023-06-22T10:13:02;9.90;;;5.32;;
41635;SDS011;27623;51.966;4.602;2023-06-22T10:15:35;13.50;;;7.07;;
41635;SDS011;27623;51.966;4.602;2023-06-22T10:18:00;10.00;;;5.70;;
41635;SDS011;27623;51.966;4.602;2023-06-22T10:20:25;9.80;;;5.85;;
41635;SDS011;27623;51.966;4.602;2023-06-22T10:22:51;8.65;;;5.88;;
41635;SDS011;27623;51.966;4.602;2023-06-22T10:25:17;11.10;;;5.18;;
41635;SDS011;27623;51.966;4.602;2023-06-22T10:27:42;12.18;;;6.63;;
41635;SDS011;27623;51.966;4.602;2023-06-22T10:30:11;9.88;;;6.07;;
41635;SDS011;27623;51.966;4.602;2023-06-22T10:32:37;11.13;;;6.72;;
41635;SDS011;27623;51.966;4.602;2023-06-22T10:35:04;10.40;;;5.25;;
41635;SDS011;27623;51.966;4.602;2023-06-22T10:37:29;8.73;;;5.28;;
41635;SDS011;27623;51.966;4.602;2023-06-22T10:39:55;8.90;;;5.90;;
41635;SDS011;27623;51.966;4.602;2023-06-22T10:42:20;11.73;;;6.10;;
41635;SDS011;27623;51.966;4.602;2023-06-22T10:44:46;9.40;;;6.30;;
41635;SDS011;27623;51.966;4.602;2023-06-22T10:47:11;9.93;;;6.68;;
41635;SDS011;27623;51.966;4.602;2023-06-22T10:49:37;11.75;;;7.50;;
41635;SDS011;27623;51.966;4.602;2023-06-22T10:52:04;14.00;;;8.48;;
41635;SDS011;27623;51.966;4.602;2023-06-22T10:54:32;11.35;;;7.25;;
41635;SDS011;27623;51.966;4.602;2023-06-22T10:56:58;16.05;;;8.20;;
41635;SDS011;27623;51.966;4.602;2023-06-22T10:59:24;14.20;;;8.75;;
41635;SDS011;27623;51.966;4.602;2023-06-22T11:01:50;17.58;;;9.68;;
41635;SDS011;27623;51.966;4.602;2023-06-22T11:04:16;19.58;;;9.43;;
41635;SDS011;27623;51.966;4.602;2023-06-22T11:06:42;14.02;;;9.05;;
41635;SDS011;27623;51.966;4.602;2023-06-22T11:09:08;14.15;;;9.88;;
41635;SDS011;27623;51.966;4.602;2023-06-22T11:11:33;16.00;;;10.57;;
41635;SDS011;27623;51.966;4.602;2023-06-22T11:13:59;13.10;;;8.93;;
41635;SDS011;27623;51.966;4.602;2023-06-22T11:16:24;15.65;;;10.48;;
41635;SDS011;27623;51.966;4.602;2023-06-22T11:18:52;16.38;;;10.25;;
41635;SDS011;27623;51.966;4.602;2023-06-22T11:21:20;15.70;;;10.07;;
41635;SDS011;27623;51.966;4.602;2023-06-22T11:23:45;13.60;;;9.35;;
41635;SDS011;27623;51.966;4.602;2023-06-22T11:26:11;13.52;;;9.30;;
41635;SDS011;27623;51.966;4.602;2023-06-22T11:28:36;16.75;;;9.45;;
41635;SDS011;27623;51.966;4.602;2023-06-22T11:31:01;15.73;;;10.45;;
41635;SDS011;27623;51.966;4.602;2023-06-22T11:33:27;17.85;;;10.75;;
41635;SDS011;27623;51.966;4.602;2023-06-22T11:35:52;14.55;;;11.55;;
41635;SDS011;27623;51.966;4.602;2023-06-22T11:38:18;16.23;;;10.82;;
41635;SDS011;27623;51.966;4.602;2023-06-22T11:40:43;20.20;;;12.18;;
41635;SDS011;27623;51.966;4.602;2023-06-22T11:43:09;17.73;;;11.98;;
41635;SDS011;27623;51.966;4.602;2023-06-22T11:45:34;19.13;;;12.57;;
41635;SDS011;27623;51.966;4.602;2023-06-22T11:47:59;17.00;;;12.02;;
41635;SDS011;27623;51.966;4.602;2023-06-22T11:50:25;16.25;;;11.23;;
41635;SDS011;27623;51.966;4.602;2023-06-22T11:52:50;15.85;;;10.48;;
41635;SDS011;27623;51.966;4.602;2023-06-22T11:55:17;16.02;;;10.02;;
41635;SDS011;27623;51.966;4.602;2023-06-22T11:57:53;16.98;;;10.27;;
41635;SDS011;27623;51.966;4.602;2023-06-22T12:00:20;15.32;;;9.23;;
41635;SDS011;27623;51.966;4.602;2023-06-22T12:02:51;14.63;;;8.38;;
41635;SDS011;27623;51.966;4.602;2023-06-22T12:05:20;15.52;;;9.73;;
41635;SDS011;27623;51.966;4.602;2023-06-22T12:07:46;15.18;;;9.15;;
41635;SDS011;27623;51.966;4.602;2023-06-22T12:10:11;13.57;;;10.25;;
41635;SDS011;27623;51.966;4.602;2023-06-22T12:12:37;17.42;;;9.80;;
41635;SDS011;27623;51.966;4.602;2023-06-22T12:15:03;18.02;;;10.90;;
41635;SDS011;27623;51.966;4.602;2023-06-22T12:17:29;14.10;;;10.38;;
41635;SDS011;27623;51.966;4.602;2023-06-22T12:19:55;15.32;;;9.65;;
41635;SDS011;27623;51.966;4.602;2023-06-22T12:22:20;18.67;;;11.20;;
41635;SDS011;27623;51.966;4.602;2023-06-22T12:24:46;21.10;;;11.65;;
41635;SDS011;27623;51.966;4.602;2023-06-22T12:27:11;18.92;;;11.25;;
41635;SDS011;27623;51.966;4.602;2023-06-22T12:29:37;21.67;;;11.20;;
41635;SDS011;27623;51.966;4.602;2023-06-22T12:32:02;19.35;;;11.73;;
41635;SDS011;27623;51.966;4.602;2023-06-22T12:34:28;16.58;;;11.68;;
41635;SDS011;27623;51.966;4.602;2023-06-22T12:36:53;17.42;;;12.40;;
41635;SDS011;27623;51.966;4.602;2023-06-22T12:39:19;17.48;;;11.68;;
41635;SDS011;27623;51.966;4.602;2023-06-22T12:41:45;17.27;;;11.35;;
41635;SDS011;27623;51.966;4.602;2023-06-22T12:44:10;18.77;;;12.23;;
41635;SDS011;27623;51.966;4.602;2023-06-22T12:46:36;24.15;;;13.52;;
41635;SDS011;27623;51.966;4.602;2023-06-22T12:49:03;18.50;;;12.48;;
41635;SDS011;27623;51.966;4.602;2023-06-22T12:51:29;21.08;;;14.18;;
41635;SDS011;27623;51.966;4.602;2023-06-22T12:53:55;25.30;;;15.60;;
41635;SDS011;27623;51.966;4.602;2023-06-22T12:56:20;24.33;;;16.25;;
41635;SDS011;27623;51.966;4.602;2023-06-22T12:58:45;19.45;;;14.73;;
41635;SDS011;27623;51.966;4.602;2023-06-22T13:01:11;23.15;;;15.82;;
41635;SDS011;27623;51.966;4.602;2023-06-22T13:03:36;24.45;;;16.80;;
41635;SDS011;27623;51.966;4.602;2023-06-22T13:06:02;21.60;;;16.25;;
41635;SDS011;27623;51.966;4.602;2023-06-22T13:08:28;22.92;;;16.67;;
41635;SDS011;27623;51.966;4.602;2023-06-22T13:10:54;26.48;;;19.25;;
41635;SDS011;27623;51.966;4.602;2023-06-22T13:13:21;29.15;;;19.48;;
41635;SDS011;27623;51.966;4.602;2023-06-22T13:15:49;27.17;;;18.15;;
41635;SDS011;27623;51.966;4.602;2023-06-22T13:18:15;31.40;;;19.13;;
41635;SDS011;27623;51.966;4.602;2023-06-22T13:20:40;27.10;;;19.33;;
41635;SDS011;27623;51.966;4.602;2023-06-22T13:23:06;27.23;;;18.08;;
41635;SDS011;27623;51.966;4.602;2023-06-22T13:25:31;26.98;;;19.27;;
41635;SDS011;27623;51.966;4.602;2023-06-22T13:27:57;28.40;;;18.30;;
41635;SDS011;27623;51.966;4.602;2023-06-22T13:30:22;25.80;;;18.38;;
41635;SDS011;27623;51.966;4.602;2023-06-22T13:32:48;25.98;;;17.58;;
41635;SDS011;27623;51.966;4.602;2023-06-22T13:35:13;23.90;;;18.10;;
41635;SDS011;27623;51.966;4.602;2023-06-22T13:37:38;26.30;;;19.55;;
41635;SDS011;27623;51.966;4.602;2023-06-22T13:40:05;23.83;;;17.77;;
41635;SDS011;27623;51.966;4.602;2023-06-22T13:42:32;25.25;;;18.30;;
41635;SDS011;27623;51.966;4.602;2023-06-22T13:44:57;26.20;;;17.60;;
41635;SDS011;27623;51.966;4.602;2023-06-22T13:47:23;26.85;;;18.42;;
41635;SDS011;27623;51.966;4.602;2023-06-22T13:49:48;30.05;;;18.88;;
41635;SDS011;27623;51.966;4.602;2023-06-22T13:52:14;28.00;;;17.90;;
41635;SDS011;27623;51.966;4.602;2023-06-22T13:54:39;26.45;;;19.05;;
41635;SDS011;27623;51.966;4.602;2023-06-22T13:57:05;23.90;;;17.88;;
41635;SDS011;27623;51.966;4.602;2023-06-22T13:59:30;24.65;;;18.58;;
41635;SDS011;27623;51.966;4.602;2023-06-22T14:01:58;27.42;;;18.08;;
41635;SDS011;27623;51.966;4.602;2023-06-22T14:04:23;24.25;;;17.08;;
41635;SDS011;27623;51.966;4.602;2023-06-22T14:06:49;22.00;;;17.15;;
41635;SDS011;27623;51.966;4.602;2023-06-22T14:09:17;25.25;;;17.77;;
41635;SDS011;27623;51.966;4.602;2023-06-22T14:11:42;24.10;;;17.30;;
41635;SDS011;27623;51.966;4.602;2023-06-22T14:14:08;28.00;;;18.13;;
41635;SDS011;27623;51.966;4.602;2023-06-22T14:16:33;26.60;;;18.73;;
41635;SDS011;27623;51.966;4.602;2023-06-22T14:18:58;25.40;;;18.50;;
41635;SDS011;27623;51.966;4.602;2023-06-22T14:21:25;28.85;;;19.35;;
41635;SDS011;27623;51.966;4.602;2023-06-22T14:23:50;26.27;;;19.20;;
41635;SDS011;27623;51.966;4.602;2023-06-22T14:26:16;26.48;;;19.27;;